createdAt,value
2022-10-13T03:16:22.890Z,6.40
2022-10-13T03:19:16.440Z,6.90
2022-10-13T03:22:20.082Z,6.33
2022-10-13T03:25:12.014Z,6.70
2022-10-13T03:28:01.389Z,6.57
2022-10-13T03:30:58.292Z,6.60
2022-10-13T03:37:19.495Z,6.77
2022-10-13T03:40:12.910Z,7.33
2022-10-13T03:43:02.891Z,6.40
2022-10-13T03:46:04.593Z,6.07
2022-10-13T03:49:05.033Z,6.30
2022-10-13T03:52:01.593Z,7.00
2022-10-13T03:57:54.209Z,6.73
2022-10-13T04:03:47.474Z,6.70
2022-10-13T04:06:42.199Z,7.40
2022-10-13T04:09:33.479Z,7.10
2022-10-13T04:12:27.241Z,6.90
2022-10-13T04:15:40.178Z,7.03
2022-10-13T04:18:30.498Z,6.90
2022-10-13T04:21:21.652Z,7.33
2022-10-13T04:24:16.745Z,8.03
2022-10-13T04:27:05.880Z,7.30
2022-10-13T04:29:59.997Z,6.73
2022-10-13T04:32:49.618Z,7.40
2022-10-13T04:35:46.544Z,6.97
2022-10-13T04:41:41.364Z,7.13
2022-10-13T04:44:31.895Z,7.70
2022-10-13T04:47:24.746Z,6.90
2022-10-13T04:50:14.817Z,7.13
2022-10-13T04:53:04.376Z,6.60
2022-10-13T04:55:56.915Z,7.40
2022-10-13T04:58:49.356Z,8.40
2022-10-13T05:01:39.610Z,7.47
2022-10-13T05:04:30.224Z,7.00
2022-10-13T05:07:22.839Z,7.27
2022-10-13T05:10:23.164Z,7.60
2022-10-13T05:13:13.780Z,7.67
2022-10-13T05:16:09.714Z,8.17
2022-10-13T05:19:02.237Z,7.50
2022-10-13T05:21:53.840Z,8.43
2022-10-13T05:24:51.510Z,7.90
2022-10-13T05:27:43.136Z,7.97
2022-10-13T05:30:35.831Z,7.87
2022-10-13T05:33:50.528Z,8.27
2022-10-13T05:36:45.489Z,8.57
2022-10-13T05:42:38.469Z,7.83
2022-10-13T05:45:49.730Z,7.70
2022-10-13T06:07:34.891Z,8.60
2022-10-13T06:10:28.675Z,9.03
2022-10-13T06:13:36.794Z,8.50
2022-10-13T06:30:58.271Z,8.73
2022-10-13T06:33:48.720Z,9.80
2022-10-13T06:36:46.066Z,8.97
2022-10-13T06:53:04.374Z,9.40
2022-10-13T06:55:54.926Z,8.93
2022-10-13T07:01:47.911Z,10.33
2022-10-13T07:04:38.190Z,9.97
2022-10-13T07:07:27.787Z,9.90
2022-10-13T07:10:32.497Z,10.13
2022-10-13T07:13:34.914Z,9.63
2022-10-13T07:16:43.281Z,9.80
2022-10-13T07:19:34.253Z,9.97
2022-10-13T07:22:23.929Z,9.83
2022-10-13T07:25:27.427Z,9.67
2022-10-13T07:31:56.942Z,9.80
2022-10-13T07:38:13.033Z,10.17
2022-10-13T07:41:05.762Z,10.70
2022-10-13T07:44:11.123Z,10.37
2022-10-13T07:47:02.767Z,10.00
2022-10-13T07:50:06.420Z,10.17
2022-10-13T07:53:00.876Z,10.60
2022-10-13T07:55:58.157Z,9.90
2022-10-13T07:59:02.229Z,9.87
2022-10-13T08:05:14.089Z,10.70
2022-10-13T08:08:18.762Z,11.17
2022-10-13T08:11:16.688Z,11.23
2022-10-13T08:14:09.455Z,11.37
2022-10-13T08:17:01.543Z,12.03
2022-10-13T08:19:59.055Z,11.67
2022-10-13T08:22:52.144Z,11.53
2022-10-13T08:25:42.583Z,12.03
2022-10-13T08:28:34.363Z,11.20
2022-10-13T08:31:23.563Z,11.60
2022-10-13T08:34:13.389Z,12.17
2022-10-13T08:37:02.030Z,11.50
2022-10-13T08:39:50.944Z,11.90
2022-10-13T08:42:45.199Z,12.13
2022-10-13T08:45:42.353Z,12.80
2022-10-13T08:48:32.926Z,12.97
2022-10-13T08:51:21.756Z,12.73
2022-10-13T08:54:12.162Z,12.73
2022-10-13T08:59:54.032Z,12.17
2022-10-13T09:02:45.156Z,13.20
2022-10-13T09:05:46.485Z,12.77
2022-10-13T09:08:39.644Z,12.60
2022-10-13T09:11:40.170Z,12.30
2022-10-13T09:14:45.429Z,13.10
2022-10-13T09:17:42.004Z,12.27
2022-10-13T09:20:30.822Z,12.97
2022-10-13T09:23:21.212Z,12.60
2022-10-13T09:26:12.882Z,13.40
2022-10-13T09:29:10.220Z,12.90
2022-10-13T09:32:09.897Z,11.63
2022-10-13T09:35:15.184Z,13.27
2022-10-13T09:38:05.418Z,14.40
2022-10-13T09:41:06.307Z,12.37
2022-10-13T09:44:05.825Z,13.13
2022-10-13T09:46:55.527Z,13.57
2022-10-13T09:49:49.207Z,12.70
2022-10-13T09:52:43.380Z,13.87
2022-10-13T09:55:33.176Z,12.57
2022-10-13T09:58:34.167Z,12.10
2022-10-13T10:01:29.428Z,12.40
2022-10-13T10:04:32.903Z,12.37
2022-10-13T10:07:24.004Z,12.40
2022-10-13T10:10:25.162Z,12.60
2022-10-13T10:13:15.215Z,12.30
2022-10-13T10:16:07.911Z,12.60
2022-10-13T10:19:00.710Z,13.50
2022-10-13T10:22:07.622Z,13.83
2022-10-13T10:25:01.627Z,12.70
2022-10-13T10:28:05.415Z,12.90
2022-10-13T10:31:01.205Z,13.20
2022-10-13T10:34:01.838Z,13.63
2022-10-13T10:36:56.718Z,13.50
2022-10-13T10:39:50.724Z,13.10
2022-10-13T10:43:13.443Z,14.00
2022-10-13T10:46:21.628Z,12.77
2022-10-13T10:49:19.038Z,12.73
2022-10-13T10:52:09.334Z,13.60
2022-10-13T10:55:05.786Z,12.43
2022-10-13T10:58:01.082Z,13.73
2022-10-13T11:00:58.450Z,13.20
2022-10-13T11:04:02.306Z,12.80
2022-10-13T11:10:16.770Z,12.83
2022-10-13T11:13:19.694Z,12.63
2022-10-13T11:16:36.004Z,12.37
2022-10-13T11:19:33.637Z,12.53
2022-10-13T11:25:46.141Z,11.20
2022-10-13T11:28:52.030Z,12.10
2022-10-13T11:31:53.631Z,12.23
2022-10-13T11:35:03.434Z,12.20
2022-10-13T11:38:07.332Z,11.60
2022-10-13T11:41:15.406Z,11.80
2022-10-13T11:44:08.518Z,12.40
2022-10-13T11:47:11.360Z,11.63
2022-10-13T11:50:08.019Z,10.90
2022-10-13T11:53:08.835Z,12.23
2022-10-13T11:55:59.159Z,12.03
2022-10-13T11:58:53.688Z,11.43
2022-10-13T12:01:47.506Z,11.60
2022-10-13T12:04:36.530Z,11.57
2022-10-13T12:07:25.719Z,11.50
2022-10-13T12:10:34.019Z,10.70
2022-10-13T12:13:23.992Z,10.50
2022-10-13T12:16:22.624Z,11.17
2022-10-13T12:19:23.370Z,9.87
2022-10-13T12:22:14.443Z,11.80
2022-10-13T12:25:05.049Z,10.03
2022-10-13T12:27:56.952Z,10.07
2022-10-13T12:30:52.718Z,9.27
2022-10-13T12:33:51.274Z,9.73
2022-10-13T12:36:49.183Z,9.50
2022-10-13T12:39:40.036Z,10.43
2022-10-13T12:42:31.908Z,10.30
2022-10-13T12:45:25.322Z,8.83
2022-10-13T12:48:29.198Z,9.00
2022-10-13T12:51:22.339Z,10.40
2022-10-13T12:54:16.856Z,9.83
2022-10-13T12:57:07.935Z,11.30
2022-10-13T13:00:03.275Z,11.40
2022-10-13T13:02:53.211Z,11.33
2022-10-13T13:05:47.917Z,10.60
2022-10-13T13:11:55.769Z,10.83
2022-10-13T13:14:48.548Z,10.90
2022-10-13T13:17:57.263Z,11.00
2022-10-13T13:20:49.010Z,9.87
2022-10-13T13:23:53.723Z,11.00
2022-10-13T13:26:51.184Z,11.17
2022-10-13T13:32:57.511Z,10.30
2022-10-13T13:35:49.216Z,10.13
2022-10-13T13:38:40.435Z,11.13
2022-10-13T13:41:31.275Z,10.17
2022-10-13T13:44:22.569Z,12.23
2022-10-13T13:47:20.295Z,11.00
2022-10-13T13:50:17.465Z,11.43
2022-10-13T13:53:10.154Z,10.17
2022-10-13T13:56:00.658Z,10.00
2022-10-13T13:58:51.660Z,9.73
2022-10-13T14:01:50.142Z,10.13
2022-10-13T14:04:41.596Z,8.90
2022-10-13T14:10:38.398Z,10.77
2022-10-13T14:13:27.958Z,9.63
2022-10-13T14:22:27.690Z,9.77
2022-10-13T14:25:18.349Z,9.40
2022-10-13T14:28:09.092Z,10.37
2022-10-13T21:17:43.307Z,21.47
2022-10-13T21:20:50.892Z,21.67
2022-10-13T21:44:10.137Z,23.67
2022-10-13T22:17:34.466Z,23.37
2022-10-13T22:20:39.092Z,23.93
2022-10-13T22:30:06.102Z,22.73
2022-10-13T22:57:51.181Z,21.77
2022-10-13T23:21:31.414Z,23.47
